CYQZ - Quesnel Airport

Pirep is a free, collaborative database of all public and private airports located within the United States. All pilots are welcome to contribute, edit, and improve any airport they have local knowledge about, no registration required.
Are you familiar with this airport? Help out other pilots by adding your local knowledge.
Uploaded photos will be licensed under a CC BY-SA 4.0 license. Please only upload photos you have the rights to use.
Tags
Public
Undocu­mented
METAR / TAF
Webcam
Edit Tags
Food
Camping
Lodging
Car Rental
Bicycles
Swimming
Golfing
Fishing
Hot Springs
Museum
Flying Clubs
Airpark
Upcoming Events
No upcoming events. Is anything happening here soon?
*
*
*

Where exactly on/near the airport is this event taking place?

Is there a webpage with more information for this event?

Who should be contacted for more information?

What is this event all about?

Repeat every
Description
Transient Parking
Fuel Location
Landing & Tie-down Fees
Crew Car Availability
Flying Clubs
WiFi Access
Airport Statistics
Location: Quesnel, British Columbia
Elevation: 1,789ft
Runway 13/31: 5,500ft
Warning: This airport was imported from a non-authoritative source. It's public/private status may not be accurate.
Access: Open to the public
Current Weather — VFR
  • Weather data is strictly informational and not for flight planning purposes.
  • METAR
    2024-06-17 18:00:00 PDT
    Ceiling Wind Temperature Dewpoint Weather Visbility
    Sky clear 10° @ 8kt 64°F 35°F N/A 9SM
    Raw: CYQZ 180100Z AUTO 01008KT 340V130 9SM CLR 18/02 A2986 RMK SLP123 DENSITY ALT 2700FT
  • TAF
    2024-06-17 18:00:00 PDT – 2024-06-17 20:00:00 PDT
    Ceiling Wind Weather Visbility
    Sky clear 340° @ 7kt N/A 6SM
    Clouds: Scattered @ 8,000ft
    Raw: TAF CYQZ 180040Z 1801/1806 34007KT P6SM SCT080 TEMPO 1801/1803 P6SM VCSH BKN080 FM180300 VRB03KT P6SM FEW090 SCT220 RMK FCST BASED ON AUTO OBS. NXT FCST BY 181200Z
  • TAF
    2024-06-17 18:00:00 PDT – 2024-06-17 20:00:00 PDT
    Ceiling Wind Weather Visbility
    8,000ft ° @ kt Showers in vicinity 6SM
    Clouds: Broken @ 8,000ft
    Raw: TAF CYQZ 180040Z 1801/1806 34007KT P6SM SCT080 TEMPO 1801/1803 P6SM VCSH BKN080 FM180300 VRB03KT P6SM FEW090 SCT220 RMK FCST BASED ON AUTO OBS. NXT FCST BY 181200Z
  • TAF
    2024-06-17 20:00:00 PDT – 2024-06-17 23:00:00 PDT
    Ceiling Wind Weather Visbility
    Sky clear Variable N/A 6SM
    Clouds: Few @ 9,000ft, Scattered @ 22,000ft
    Raw: TAF CYQZ 180040Z 1801/1806 34007KT P6SM SCT080 TEMPO 1801/1803 P6SM VCSH BKN080 FM180300 VRB03KT P6SM FEW090 SCT220 RMK FCST BASED ON AUTO OBS. NXT FCST BY 181200Z
Click/tap to add an annotation marker to the map
Direct links to live image URLs will be displayed inline on this page. URLs to separate webpages will be linked to.
URL:
Direct links to live image URLs will be displayed inline on this page. URLs to separate webpages will be linked to.
URL:
Comments
Leave a comment What was your experience like at this airport?